createdAt,value
2022-08-29T00:01:01.502Z,15.67
2022-08-29T00:03:31.540Z,15.61
2022-08-29T00:06:00.988Z,15.62
2022-08-29T00:08:30.473Z,15.58
2022-08-29T00:11:00.162Z,15.46
2022-08-29T00:13:29.557Z,15.43
2022-08-29T00:15:58.996Z,15.39
2022-08-29T00:18:28.444Z,15.38
2022-08-29T00:20:58.070Z,15.37
2022-08-29T00:23:27.643Z,15.34
2022-08-29T00:25:57.538Z,15.33
2022-08-29T00:28:27.123Z,15.28
2022-08-29T00:30:56.554Z,15.23
2022-08-29T00:33:25.977Z,15.20
2022-08-29T00:35:55.418Z,15.14
2022-08-29T00:38:27.783Z,15.10
2022-08-29T00:41:00.439Z,15.07
2022-08-29T00:43:33.732Z,15.02
2022-08-29T00:46:28.199Z,14.99
2022-08-29T00:49:01.672Z,14.92
2022-08-29T00:51:31.262Z,14.85
2022-08-29T00:54:04.012Z,14.79
2022-08-29T00:56:34.709Z,14.72
2022-08-29T00:59:15.855Z,14.68
2022-08-29T01:01:45.803Z,14.66
2022-08-29T01:04:15.938Z,14.65
2022-08-29T01:06:55.548Z,14.55
2022-08-29T01:09:26.211Z,14.52
2022-08-29T01:12:09.028Z,14.43
2022-08-29T01:14:38.911Z,14.45
2022-08-29T01:17:11.279Z,14.44
2022-08-29T01:19:49.742Z,14.41
2022-08-29T01:22:40.506Z,14.38
2022-08-29T01:25:25.200Z,14.33
2022-08-29T01:28:28.686Z,14.28
2022-08-29T01:31:03.753Z,14.23
2022-08-29T01:33:50.053Z,14.20
2022-08-29T01:36:23.914Z,14.21
2022-08-29T01:38:54.596Z,14.12
2022-08-29T01:41:24.707Z,14.18
2022-08-29T01:43:57.079Z,14.13
2022-08-29T01:46:36.283Z,14.07
2022-08-29T01:49:09.595Z,13.99
2022-08-29T01:51:39.978Z,13.94
2022-08-29T01:54:11.670Z,13.92
2022-08-29T01:56:44.833Z,13.83
2022-08-29T01:59:18.511Z,13.81
2022-08-29T02:01:57.261Z,13.81
2022-08-29T02:04:27.454Z,13.81
2022-08-29T02:06:56.908Z,13.81
2022-08-29T02:09:27.704Z,13.80
2022-08-29T02:11:58.740Z,13.77
2022-08-29T02:14:28.359Z,13.76
2022-08-29T02:16:57.948Z,13.74
2022-08-29T02:19:27.564Z,13.72
2022-08-29T02:21:57.317Z,13.71
2022-08-29T02:24:26.919Z,13.72
2022-08-29T02:26:58.383Z,13.74
2022-08-29T02:29:37.107Z,13.73
2022-08-29T02:32:09.855Z,13.69
2022-08-29T02:34:39.559Z,13.64
2022-08-29T02:37:12.815Z,13.60
2022-08-29T02:39:42.415Z,13.61
2022-08-29T02:42:11.839Z,13.57
2022-08-29T02:44:41.169Z,13.61
2022-08-29T02:47:11.174Z,13.58
2022-08-29T02:49:40.565Z,13.60
2022-08-29T02:52:11.386Z,13.63
2022-08-29T02:54:40.857Z,13.64
2022-08-29T02:57:10.190Z,13.65
2022-08-29T02:59:42.236Z,13.68
2022-08-29T03:02:13.641Z,13.68
2022-08-29T03:04:43.051Z,13.68
2022-08-29T03:07:12.380Z,13.65
2022-08-29T03:09:42.810Z,13.65
2022-08-29T03:12:12.132Z,13.62
2022-08-29T03:14:43.807Z,13.61
2022-08-29T03:17:13.213Z,13.59
2022-08-29T03:19:42.623Z,13.60
2022-08-29T03:22:12.312Z,13.58
2022-08-29T03:24:41.937Z,13.62
2022-08-29T03:27:11.224Z,13.61
2022-08-29T03:29:41.049Z,13.57
2022-08-29T03:32:10.560Z,13.54
2022-08-29T03:34:41.800Z,13.54
2022-08-29T03:37:11.145Z,13.54
2022-08-29T03:39:40.843Z,13.52
2022-08-29T03:42:12.312Z,13.54
2022-08-29T03:44:43.878Z,13.53
2022-08-29T03:47:13.562Z,13.53
2022-08-29T03:49:43.595Z,13.53
2022-08-29T03:52:13.029Z,13.54
2022-08-29T03:54:42.311Z,13.55
2022-08-29T03:57:14.247Z,13.55
2022-08-29T03:59:43.755Z,13.53
2022-08-29T04:02:13.384Z,13.55
2022-08-29T04:04:55.256Z,13.50
2022-08-29T04:07:24.666Z,13.48
2022-08-29T04:09:54.103Z,13.47
2022-08-29T04:12:23.701Z,13.47
2022-08-29T04:14:53.035Z,13.48
2022-08-29T04:17:22.513Z,13.48
2022-08-29T04:19:51.856Z,13.47
2022-08-29T04:22:21.426Z,13.47
2022-08-29T04:24:50.788Z,13.46
2022-08-29T04:27:20.127Z,13.44
2022-08-29T04:29:50.077Z,13.39
2022-08-29T04:32:19.983Z,13.37
2022-08-29T04:34:49.358Z,13.36
2022-08-29T04:37:18.687Z,13.33
2022-08-29T04:39:48.048Z,13.12
2022-08-29T04:42:20.255Z,13.24
2022-08-29T04:44:50.301Z,13.28
2022-08-29T04:47:21.687Z,13.28
2022-08-29T04:49:56.540Z,13.25
2022-08-29T04:52:26.802Z,13.24
2022-08-29T04:54:56.279Z,13.15
2022-08-29T04:57:26.016Z,13.12
2022-08-29T04:59:59.965Z,13.09
2022-08-29T05:02:30.791Z,13.07
2022-08-29T05:05:00.418Z,13.07
2022-08-29T05:07:30.208Z,13.10
2022-08-29T05:10:09.529Z,13.05
2022-08-29T05:12:39.786Z,13.04
2022-08-29T05:15:10.625Z,13.05
2022-08-29T05:17:40.153Z,13.02
2022-08-29T05:20:13.507Z,13.00
2022-08-29T05:22:43.664Z,13.01
2022-08-29T05:25:18.243Z,13.04
2022-08-29T05:27:49.032Z,13.12
2022-08-29T05:30:34.816Z,13.19
2022-08-29T05:33:05.002Z,13.33
2022-08-29T05:35:35.732Z,13.35
2022-08-29T05:38:09.191Z,13.39
2022-08-29T05:40:41.337Z,13.46
2022-08-29T05:43:14.198Z,13.55
2022-08-29T05:45:43.542Z,13.68
2022-08-29T05:48:14.983Z,13.77
2022-08-29T05:50:45.733Z,13.89
2022-08-29T05:53:18.988Z,13.96
2022-08-29T05:55:48.365Z,14.06
2022-08-29T05:58:18.439Z,14.16
2022-08-29T06:00:49.755Z,14.25
2022-08-29T06:03:19.780Z,14.38
2022-08-29T06:05:54.360Z,14.50
2022-08-29T06:08:23.911Z,14.61
2022-08-29T06:10:53.379Z,14.69
2022-08-29T06:13:22.791Z,14.78
2022-08-29T06:15:52.479Z,14.87
2022-08-29T06:18:22.957Z,15.00
2022-08-29T06:21:09.030Z,15.05
2022-08-29T06:23:39.467Z,15.11
2022-08-29T06:26:10.753Z,15.22
2022-08-29T06:28:41.988Z,15.28
2022-08-29T06:31:17.809Z,15.36
2022-08-29T06:33:47.289Z,15.39
2022-08-29T06:36:16.751Z,15.50
2022-08-29T06:38:46.428Z,15.56
2022-08-29T06:41:19.146Z,15.67
2022-08-29T06:43:48.558Z,15.82
2022-08-29T06:46:30.946Z,15.94
2022-08-29T06:49:02.269Z,16.06
2022-08-29T06:51:33.390Z,16.23
2022-08-29T06:54:04.230Z,16.39
2022-08-29T06:56:37.640Z,16.43
2022-08-29T06:59:08.706Z,16.49
2022-08-29T07:01:38.599Z,16.56
2022-08-29T07:04:12.823Z,16.72
2022-08-29T07:06:44.828Z,16.83
2022-08-29T07:09:15.734Z,16.97
2022-08-29T07:11:45.736Z,17.09
2022-08-29T07:14:15.833Z,17.24
2022-08-29T07:16:45.536Z,17.50
2022-08-29T07:19:14.893Z,17.79
2022-08-29T07:21:48.939Z,18.07
2022-08-29T07:24:18.988Z,18.36
2022-08-29T07:26:51.223Z,18.61
2022-08-29T07:29:24.477Z,18.63
2022-08-29T07:31:56.960Z,18.62
2022-08-29T07:34:26.327Z,18.67
2022-08-29T07:36:55.694Z,18.72
2022-08-29T07:39:25.374Z,18.74
2022-08-29T07:41:54.754Z,18.76
2022-08-29T07:44:24.169Z,18.84
2022-08-29T07:46:58.773Z,18.92
2022-08-29T07:49:40.593Z,19.03
2022-08-29T07:52:11.176Z,19.42
2022-08-29T07:54:40.532Z,19.80
2022-08-29T07:57:15.585Z,20.05
2022-08-29T07:59:44.956Z,20.26
2022-08-29T08:02:17.466Z,20.47
2022-08-29T08:04:46.946Z,20.67
2022-08-29T08:07:21.717Z,20.60
2022-08-29T08:09:59.107Z,20.72
2022-08-29T08:12:28.502Z,21.01
2022-08-29T08:14:59.601Z,21.32
2022-08-29T08:17:29.046Z,21.45
2022-08-29T08:19:58.344Z,21.63
2022-08-29T08:22:27.789Z,21.78
2022-08-29T08:24:57.319Z,21.92
2022-08-29T08:27:26.744Z,22.07
2022-08-29T08:29:59.735Z,22.17
2022-08-29T08:32:32.702Z,22.13
2022-08-29T08:35:02.404Z,22.15
2022-08-29T08:37:31.919Z,22.01
2022-08-29T08:40:02.247Z,21.93
2022-08-29T08:42:46.773Z,21.89
2022-08-29T08:45:31.853Z,21.90
2022-08-29T08:48:09.034Z,21.75
2022-08-29T08:50:52.472Z,21.68
2022-08-29T08:53:43.511Z,21.61
2022-08-29T08:56:22.423Z,21.48
2022-08-29T08:58:56.747Z,21.60
2022-08-29T09:01:40.033Z,21.60
2022-08-29T09:04:41.960Z,21.70
2022-08-29T09:07:27.017Z,21.78
2022-08-29T09:10:21.207Z,21.98
2022-08-29T09:13:19.134Z,22.25
2022-08-29T09:15:51.088Z,22.45
2022-08-29T09:18:27.248Z,22.71
2022-08-29T09:20:57.150Z,22.93
2022-08-29T09:23:46.637Z,23.10
2022-08-29T09:26:20.107Z,23.22
2022-08-29T09:28:50.423Z,23.29
2022-08-29T09:31:37.680Z,23.41
2022-08-29T09:34:12.785Z,23.53
2022-08-29T09:36:53.597Z,23.61
2022-08-29T09:39:25.963Z,23.42
2022-08-29T09:42:00.029Z,23.43
2022-08-29T09:44:34.775Z,23.58
2022-08-29T09:47:10.843Z,23.51
2022-08-29T09:49:42.996Z,23.42
2022-08-29T09:52:17.013Z,23.44
2022-08-29T09:54:47.389Z,23.59
2022-08-29T09:57:31.862Z,24.06
2022-08-29T10:00:29.748Z,24.07
2022-08-29T10:03:02.759Z,24.02
2022-08-29T10:05:45.449Z,23.98
2022-08-29T10:08:38.034Z,24.20
2022-08-29T10:11:24.623Z,24.47
2022-08-29T10:13:58.608Z,24.33
2022-08-29T10:16:39.900Z,24.05
2022-08-29T10:19:24.022Z,24.23
2022-08-29T10:22:05.353Z,24.01
2022-08-29T10:25:16.805Z,24.46
2022-08-29T10:27:56.549Z,25.03
2022-08-29T10:30:31.466Z,25.38
2022-08-29T10:33:36.275Z,25.64
2022-08-29T10:36:37.495Z,25.60
2022-08-29T10:39:20.716Z,25.87
2022-08-29T10:42:01.545Z,26.25
2022-08-29T10:44:43.031Z,26.43
2022-08-29T10:47:23.675Z,26.52
2022-08-29T10:50:45.697Z,26.75
2022-08-29T10:53:21.351Z,26.85
2022-08-29T10:56:01.098Z,27.10
2022-08-29T10:59:09.478Z,26.42
2022-08-29T11:01:48.307Z,25.61
2022-08-29T11:04:23.462Z,25.67
2022-08-29T11:06:57.962Z,25.91
2022-08-29T11:09:32.519Z,26.03
2022-08-29T11:12:20.337Z,25.93
2022-08-29T11:14:55.907Z,25.92
2022-08-29T11:17:29.746Z,25.91
2022-08-29T11:20:21.672Z,25.75
2022-08-29T11:23:22.190Z,25.82
2022-08-29T11:25:52.170Z,26.06
2022-08-29T11:31:57.120Z,26.24
2022-08-29T11:34:31.450Z,25.45
2022-08-29T11:37:28.961Z,24.77
2022-08-29T11:40:11.821Z,24.72
2022-08-29T11:42:53.445Z,25.07
2022-08-29T11:45:37.265Z,25.44
2022-08-29T11:48:32.099Z,25.77
2022-08-29T11:51:01.696Z,25.42
2022-08-29T11:53:37.649Z,24.94
2022-08-29T11:56:16.092Z,24.68
2022-08-29T11:58:50.109Z,24.74
2022-08-29T12:01:39.800Z,24.55
2022-08-29T12:04:12.187Z,24.38
2022-08-29T12:06:57.331Z,24.37
2022-08-29T12:09:48.931Z,24.53
2022-08-29T12:12:21.773Z,24.45
2022-08-29T12:14:53.352Z,24.25
2022-08-29T12:17:22.595Z,24.00
2022-08-29T12:19:59.722Z,23.85
2022-08-29T12:22:48.799Z,23.72
2022-08-29T12:25:30.002Z,24.10
2022-08-29T12:28:21.009Z,24.53
2022-08-29T12:30:54.136Z,24.65
2022-08-29T12:33:23.430Z,24.60
2022-08-29T12:36:10.898Z,24.48
2022-08-29T12:38:53.389Z,24.73
2022-08-29T12:41:51.921Z,25.10
2022-08-29T12:44:29.403Z,25.25
2022-08-29T12:47:05.713Z,25.56
2022-08-29T12:50:10.153Z,25.81
2022-08-29T12:52:42.308Z,26.05
2022-08-29T12:55:28.763Z,26.31
2022-08-29T12:58:00.085Z,26.44
2022-08-29T13:00:34.071Z,26.43
2022-08-29T13:03:22.111Z,25.93
2022-08-29T13:05:51.540Z,25.52
2022-08-29T13:08:33.781Z,25.45
2022-08-29T13:11:05.215Z,25.32
2022-08-29T13:13:35.908Z,25.35
2022-08-29T13:16:09.343Z,25.73
2022-08-29T13:18:59.833Z,25.99
2022-08-29T13:21:35.551Z,25.93
2022-08-29T13:24:04.951Z,25.98
2022-08-29T13:26:35.416Z,26.33
2022-08-29T13:29:23.715Z,26.68
2022-08-29T13:32:26.980Z,26.55
2022-08-29T13:35:21.829Z,26.87
2022-08-29T13:38:23.811Z,27.35
2022-08-29T13:40:56.279Z,27.57
2022-08-29T13:43:46.016Z,27.46
2022-08-29T13:46:15.534Z,26.88
2022-08-29T13:48:45.771Z,26.53
2022-08-29T13:51:15.735Z,26.13
2022-08-29T13:53:45.612Z,26.02
2022-08-29T13:56:34.865Z,25.97
2022-08-29T13:59:05.315Z,26.03
2022-08-29T14:04:38.275Z,26.16
2022-08-29T14:07:11.295Z,26.09
2022-08-29T14:09:45.715Z,26.21
2022-08-29T14:12:16.042Z,26.49
2022-08-29T14:14:49.705Z,26.52
2022-08-29T14:17:20.987Z,26.27
2022-08-29T14:19:50.516Z,26.08
2022-08-29T14:22:19.966Z,25.88
2022-08-29T14:24:52.870Z,25.80
2022-08-29T14:27:23.908Z,25.63
2022-08-29T14:29:54.076Z,25.62
2022-08-29T14:32:24.342Z,25.70
2022-08-29T14:34:57.944Z,25.73
2022-08-29T14:37:27.290Z,25.68
2022-08-29T14:39:56.742Z,25.66
2022-08-29T14:42:27.667Z,25.68
2022-08-29T14:44:56.971Z,25.78
2022-08-29T14:47:26.273Z,25.80
2022-08-29T14:49:55.607Z,25.78
2022-08-29T14:52:25.348Z,25.78
2022-08-29T14:54:55.120Z,25.76
2022-08-29T14:57:24.514Z,25.71
2022-08-29T14:59:54.087Z,25.55
2022-08-29T15:02:23.451Z,25.56
2022-08-29T15:04:54.870Z,25.56
2022-08-29T15:07:24.219Z,25.48
2022-08-29T15:09:53.642Z,25.48
2022-08-29T15:12:24.972Z,25.51
2022-08-29T15:14:54.327Z,25.49
2022-08-29T15:17:24.107Z,25.43
2022-08-29T15:22:44.863Z,25.61
2022-08-29T15:25:20.718Z,25.65
2022-08-29T15:27:50.184Z,25.68
2022-08-29T15:30:23.665Z,25.69
2022-08-29T15:32:53.379Z,25.67
2022-08-29T15:35:22.995Z,25.67
2022-08-29T15:37:54.413Z,25.56
2022-08-29T15:40:24.285Z,25.45
2022-08-29T15:42:53.899Z,25.46
2022-08-29T15:45:23.419Z,25.53
2022-08-29T15:47:54.395Z,25.63
2022-08-29T15:50:24.640Z,25.66
2022-08-29T15:52:54.452Z,25.63
2022-08-29T15:55:25.483Z,25.69
2022-08-29T15:57:54.899Z,25.70
2022-08-29T16:00:30.080Z,25.70
2022-08-29T16:03:02.665Z,25.62
2022-08-29T16:05:32.846Z,25.64
2022-08-29T16:08:02.521Z,25.70
2022-08-29T16:10:32.692Z,25.75
2022-08-29T16:13:06.277Z,25.72
2022-08-29T16:15:35.739Z,25.75
2022-08-29T16:18:05.936Z,25.72
2022-08-29T16:20:37.268Z,25.67
2022-08-29T16:23:07.332Z,25.71
2022-08-29T16:25:36.876Z,25.69
2022-08-29T16:28:06.415Z,25.71
2022-08-29T16:30:38.014Z,25.65
2022-08-29T16:33:15.112Z,25.59
2022-08-29T16:35:45.099Z,25.57
2022-08-29T16:40:44.971Z,25.54
2022-08-29T16:43:15.615Z,25.50
2022-08-29T16:45:45.145Z,25.52
2022-08-29T16:48:18.139Z,25.49
2022-08-29T16:50:47.671Z,25.43
2022-08-29T16:53:17.100Z,25.43
2022-08-29T16:55:46.479Z,25.41
2022-08-29T16:58:28.410Z,25.43
2022-08-29T17:00:57.809Z,25.47
2022-08-29T17:03:27.408Z,25.39
2022-08-29T17:05:56.739Z,25.35
2022-08-29T17:08:23.356Z,25.31
2022-08-29T17:10:49.933Z,25.27
2022-08-29T17:13:17.022Z,25.27
2022-08-29T17:15:43.607Z,25.26
2022-08-29T17:18:13.137Z,25.24
2022-08-29T17:20:46.399Z,25.20
2022-08-29T17:23:16.085Z,25.17
2022-08-29T17:25:45.509Z,25.14
2022-08-29T17:28:18.112Z,25.07
2022-08-29T17:30:49.405Z,25.03
2022-08-29T17:33:21.349Z,25.01
2022-08-29T17:35:51.515Z,24.97
2022-08-29T17:38:21.588Z,24.91
2022-08-29T17:40:51.624Z,24.83
2022-08-29T17:43:22.054Z,24.69
2022-08-29T17:45:51.458Z,24.69
2022-08-29T17:48:21.876Z,24.66
2022-08-29T17:50:52.411Z,24.55
2022-08-29T17:53:23.096Z,24.46
2022-08-29T17:55:52.464Z,24.38
2022-08-29T17:58:24.030Z,24.31
2022-08-29T18:00:54.697Z,24.25
2022-08-29T18:03:24.933Z,24.20
2022-08-29T18:05:54.259Z,24.11
2022-08-29T18:08:23.608Z,24.03
2022-08-29T18:10:52.968Z,23.91
2022-08-29T18:13:22.476Z,23.77
2022-08-29T18:15:52.887Z,23.63
2022-08-29T18:18:23.432Z,23.55
2022-08-29T18:20:53.044Z,23.44
2022-08-29T18:23:22.545Z,23.38
2022-08-29T18:25:52.041Z,23.32
2022-08-29T18:28:21.911Z,23.27
2022-08-29T18:30:51.744Z,23.18
2022-08-29T18:33:21.188Z,23.14
2022-08-29T18:35:50.607Z,23.10
2022-08-29T18:38:20.894Z,23.05
2022-08-29T18:40:51.203Z,22.94
2022-08-29T18:43:23.870Z,22.75
2022-08-29T18:45:53.334Z,22.62
2022-08-29T18:48:25.470Z,22.56
2022-08-29T18:51:00.246Z,22.46
2022-08-29T18:53:32.811Z,22.34
2022-08-29T18:56:03.903Z,22.26
2022-08-29T18:58:35.574Z,22.14
2022-08-29T19:01:27.149Z,22.07
2022-08-29T19:03:58.412Z,21.98
2022-08-29T19:06:27.843Z,21.91
2022-08-29T19:08:59.918Z,21.82
2022-08-29T19:11:29.936Z,21.75
2022-08-29T19:13:59.270Z,21.70
2022-08-29T19:16:28.687Z,21.63
2022-08-29T19:18:58.115Z,21.60
2022-08-29T19:21:26.246Z,21.54
2022-08-29T19:23:56.548Z,21.52
2022-08-29T19:26:34.309Z,21.45
2022-08-29T19:29:09.389Z,21.40
2022-08-29T19:31:38.819Z,21.34
2022-08-29T19:34:08.271Z,21.29
2022-08-29T19:36:39.231Z,21.21
2022-08-29T19:39:08.744Z,21.20
2022-08-29T19:41:38.100Z,21.17
2022-08-29T19:44:07.452Z,21.14
2022-08-29T19:46:39.103Z,21.15
2022-08-29T19:49:12.006Z,21.15
2022-08-29T19:51:42.311Z,21.14
2022-08-29T19:54:13.844Z,21.13
2022-08-29T19:56:46.724Z,21.11
2022-08-29T19:59:17.195Z,21.09
2022-08-29T20:01:48.141Z,21.06
2022-08-29T20:04:17.541Z,21.03
2022-08-29T20:06:49.119Z,20.98
2022-08-29T20:12:09.093Z,20.92
2022-08-29T20:14:42.787Z,20.86
2022-08-29T20:17:12.344Z,20.81
2022-08-29T20:19:42.312Z,20.76
2022-08-29T20:22:11.719Z,20.73
2022-08-29T20:24:41.716Z,20.65
2022-08-29T20:27:11.099Z,20.65
2022-08-29T20:29:42.447Z,20.59
2022-08-29T20:32:12.241Z,20.55
2022-08-29T20:34:43.483Z,20.51
2022-08-29T20:37:10.521Z,20.53
2022-08-29T20:39:42.815Z,20.49
2022-08-29T20:42:12.131Z,20.44
2022-08-29T20:44:43.773Z,20.40
2022-08-29T20:47:19.260Z,20.37
2022-08-29T20:49:50.460Z,20.38
2022-08-29T20:52:22.114Z,20.36
2022-08-29T20:54:51.483Z,20.34
2022-08-29T20:57:20.965Z,20.33
2022-08-29T20:59:50.357Z,20.33
2022-08-29T21:02:19.712Z,20.28
2022-08-29T21:05:01.566Z,20.25
2022-08-29T21:07:30.951Z,20.22
2022-08-29T21:10:02.043Z,20.18
2022-08-29T21:12:31.728Z,20.16
2022-08-29T21:15:01.385Z,20.14
2022-08-29T21:17:30.717Z,20.11
2022-08-29T21:20:00.069Z,20.08
2022-08-29T21:22:29.413Z,20.12
2022-08-29T21:24:58.816Z,20.13
2022-08-29T21:27:29.212Z,20.14
2022-08-29T21:29:58.883Z,20.13
2022-08-29T21:32:28.254Z,20.13
2022-08-29T21:34:57.640Z,20.09
2022-08-29T21:37:27.327Z,20.05
2022-08-29T21:39:56.772Z,20.04
2022-08-29T21:42:26.104Z,20.00
2022-08-29T21:44:58.004Z,19.97
2022-08-29T21:47:27.493Z,19.98
2022-08-29T21:49:57.155Z,19.97
2022-08-29T21:52:26.495Z,19.97
2022-08-29T21:54:55.983Z,19.96
2022-08-29T21:57:37.874Z,19.91
2022-08-29T22:00:09.496Z,19.91
2022-08-29T22:02:40.332Z,19.89
2022-08-29T22:05:12.572Z,19.80
2022-08-29T22:07:42.937Z,19.83
2022-08-29T22:10:16.679Z,19.80
2022-08-29T22:12:46.838Z,19.78
2022-08-29T22:15:29.561Z,19.73
2022-08-29T22:17:58.946Z,19.76
2022-08-29T22:20:28.531Z,19.70
2022-08-29T22:22:57.897Z,19.68
2022-08-29T22:25:27.725Z,19.66
2022-08-29T22:27:58.628Z,19.64
2022-08-29T22:30:32.084Z,19.59
2022-08-29T22:33:03.830Z,19.57
2022-08-29T22:35:33.334Z,19.54
2022-08-29T22:38:02.773Z,19.51
2022-08-29T22:40:32.214Z,19.51
2022-08-29T22:43:01.751Z,19.49
2022-08-29T22:45:31.718Z,19.46
2022-08-29T22:48:01.234Z,19.46
2022-08-29T22:50:31.184Z,19.45
2022-08-29T22:53:02.062Z,19.40
2022-08-29T22:55:33.119Z,19.40
2022-08-29T22:58:02.470Z,19.39
2022-08-29T23:00:33.132Z,19.40
2022-08-29T23:03:03.314Z,19.35
2022-08-29T23:05:32.801Z,19.34
2022-08-29T23:08:02.195Z,19.32
2022-08-29T23:10:32.097Z,19.30
2022-08-29T23:13:01.476Z,19.28
2022-08-29T23:15:30.910Z,19.25
2022-08-29T23:18:02.365Z,19.26
2022-08-29T23:20:31.719Z,19.27
2022-08-29T23:23:04.007Z,19.31
2022-08-29T23:25:37.863Z,19.31
2022-08-29T23:28:07.256Z,19.34
2022-08-29T23:30:36.751Z,19.34
2022-08-29T23:33:06.203Z,19.37
2022-08-29T23:35:38.378Z,19.37
2022-08-29T23:38:08.036Z,19.34
2022-08-29T23:40:38.882Z,19.34
2022-08-29T23:43:09.012Z,19.30
2022-08-29T23:45:38.415Z,19.31
2022-08-29T23:48:07.968Z,19.27
2022-08-29T23:50:37.285Z,19.27
2022-08-29T23:53:06.677Z,19.27
2022-08-29T23:55:37.232Z,19.24
2022-08-29T23:58:06.948Z,19.21
